createdAt,value
2023-04-25T00:02:04.303Z,5.78
2023-04-25T00:04:31.353Z,5.43
2023-04-25T00:07:02.382Z,5.30
2023-04-25T00:09:29.147Z,5.22
2023-04-25T00:11:55.866Z,4.15
2023-04-25T00:14:23.829Z,4.63
2023-04-25T00:16:52.656Z,5.00
2023-04-25T00:19:19.260Z,6.07
2023-04-25T00:21:47.110Z,4.68
2023-04-25T00:24:14.743Z,4.45
2023-04-25T00:26:41.324Z,5.68
2023-04-25T00:29:07.991Z,4.85
2023-04-25T00:31:34.683Z,5.22
2023-04-25T00:34:01.323Z,6.25
2023-04-25T00:36:28.540Z,5.07
2023-04-25T00:38:55.988Z,5.78
2023-04-25T00:41:22.755Z,4.05
2023-04-25T00:43:52.135Z,4.53
2023-04-25T00:46:19.007Z,4.25
2023-04-25T00:48:45.605Z,5.38
2023-04-25T00:51:20.010Z,5.47
2023-04-25T00:53:48.418Z,5.72
2023-04-25T00:56:15.441Z,5.15
2023-04-25T00:58:43.583Z,5.10
2023-04-25T01:01:11.719Z,4.80
2023-04-25T01:03:43.869Z,4.80
2023-04-25T01:06:11.607Z,4.68
2023-04-25T01:08:39.694Z,5.82
2023-04-25T01:11:07.409Z,5.90
2023-04-25T01:13:35.640Z,5.13
2023-04-25T01:16:03.553Z,5.15
2023-04-25T01:18:30.279Z,6.05
2023-04-25T01:21:07.438Z,5.60
2023-04-25T01:23:36.753Z,5.50
2023-04-25T01:26:04.908Z,4.75
2023-04-25T01:28:32.203Z,5.13
2023-04-25T01:30:58.941Z,5.47
2023-04-25T01:33:26.018Z,6.13
2023-04-25T01:35:52.935Z,5.10
2023-04-25T01:38:20.525Z,5.60
2023-04-25T01:40:50.971Z,5.70
2023-04-25T01:43:19.805Z,6.15
2023-04-25T01:45:46.940Z,5.63
2023-04-25T01:48:15.030Z,6.38
2023-04-25T01:50:45.282Z,5.80
2023-04-25T01:53:14.436Z,5.72
2023-04-25T01:55:43.046Z,5.25
2023-04-25T01:58:14.213Z,6.53
2023-04-25T02:00:56.829Z,5.57
2023-04-25T02:03:26.986Z,6.47
2023-04-25T02:05:54.596Z,6.30
2023-04-25T02:08:21.602Z,6.40
2023-04-25T02:10:48.268Z,6.22
2023-04-25T02:13:18.219Z,6.57
2023-04-25T02:15:50.922Z,6.43
2023-04-25T02:18:22.216Z,6.00
2023-04-25T02:20:48.992Z,6.32
2023-04-25T02:23:20.085Z,6.18
2023-04-25T02:25:46.729Z,6.65
2023-04-25T02:28:14.337Z,5.97
2023-04-25T02:30:40.962Z,5.18
2023-04-25T02:33:07.652Z,5.30
2023-04-25T02:35:36.359Z,5.45
2023-04-25T02:38:04.923Z,5.53
2023-04-25T02:40:33.417Z,6.18
2023-04-25T02:43:01.126Z,5.72
2023-04-25T02:45:27.746Z,5.25
2023-04-25T02:47:54.391Z,5.82
2023-04-25T02:50:21.164Z,5.78
2023-04-25T02:52:47.868Z,5.10
2023-04-25T02:55:18.883Z,4.05
2023-04-25T02:57:46.338Z,5.38
2023-04-25T03:00:19.613Z,5.18
2023-04-25T03:02:46.532Z,3.78
2023-04-25T03:05:13.314Z,5.47
2023-04-25T03:07:40.483Z,5.78
2023-04-25T03:10:08.244Z,6.50
2023-04-25T03:12:36.135Z,5.40
2023-04-25T03:15:04.987Z,5.40
2023-04-25T03:17:31.736Z,4.45
2023-04-25T03:19:59.032Z,4.70
2023-04-25T03:22:26.235Z,5.18
2023-04-25T03:24:53.981Z,4.90
2023-04-25T03:27:21.035Z,4.88
2023-04-25T03:29:47.712Z,5.88
2023-04-25T03:32:14.370Z,5.40
2023-04-25T03:34:41.082Z,6.40
2023-04-25T03:37:07.827Z,6.35
2023-04-25T03:39:39.354Z,6.05
2023-04-25T03:42:07.031Z,6.25
2023-04-25T03:44:34.112Z,6.30
2023-04-25T03:47:01.522Z,6.70
2023-04-25T03:49:28.288Z,5.20
2023-04-25T03:51:58.732Z,6.35
2023-04-25T03:54:25.554Z,5.65
2023-04-25T03:57:16.482Z,5.05
2023-04-25T03:59:43.711Z,4.95
2023-04-25T04:02:12.351Z,4.80
2023-04-25T04:04:40.438Z,5.13
2023-04-25T04:07:07.456Z,7.70
2023-04-25T04:09:36.867Z,6.07
2023-04-25T04:12:08.091Z,6.03
2023-04-25T04:14:36.247Z,7.03
2023-04-25T04:17:03.161Z,5.80
2023-04-25T04:19:30.414Z,6.57
2023-04-25T04:22:10.980Z,6.35
2023-04-25T04:24:39.058Z,7.00
2023-04-25T04:27:07.736Z,6.53
2023-04-25T04:29:37.612Z,7.50
2023-04-25T04:32:14.696Z,7.78
2023-04-25T04:34:42.160Z,8.15
2023-04-25T04:37:09.193Z,8.40
2023-04-25T04:39:36.849Z,9.20
2023-04-25T04:42:30.186Z,9.30
2023-04-25T04:45:26.182Z,7.80
2023-04-25T04:48:07.001Z,8.15
2023-04-25T04:50:36.585Z,7.70
2023-04-25T04:53:21.832Z,7.88
2023-04-25T04:56:15.540Z,8.35
2023-04-25T04:58:51.725Z,8.27
2023-04-25T05:01:41.586Z,9.30
2023-04-25T05:04:21.068Z,8.00
2023-04-25T05:07:05.800Z,8.45
2023-04-25T05:09:32.353Z,8.38
2023-04-25T05:12:10.229Z,8.82
2023-04-25T05:14:36.799Z,9.82
2023-04-25T05:19:55.240Z,10.32
2023-04-25T05:22:34.398Z,9.23
2023-04-25T05:25:13.944Z,8.55
2023-04-25T05:27:49.606Z,8.90
2023-04-25T05:30:36.210Z,8.30
2023-04-25T05:33:10.175Z,8.82
2023-04-25T05:35:36.981Z,7.82
2023-04-25T05:38:03.603Z,7.50
2023-04-25T05:40:52.962Z,6.35
2023-04-25T05:43:48.079Z,6.35
2023-04-25T05:46:35.379Z,6.25
2023-04-25T05:49:12.987Z,6.97
2023-04-25T05:51:56.706Z,6.40
2023-04-25T05:54:52.716Z,5.78
2023-04-25T05:57:24.981Z,6.35
2023-04-25T05:59:53.112Z,5.38
2023-04-25T06:02:22.343Z,5.75
2023-04-25T06:04:52.297Z,5.05
2023-04-25T06:07:22.078Z,5.43
2023-04-25T06:09:48.915Z,5.28
2023-04-25T06:12:15.862Z,4.70
2023-04-25T06:14:42.599Z,4.72
2023-04-25T06:17:09.463Z,4.05
2023-04-25T06:19:39.170Z,3.90
2023-04-25T06:22:06.112Z,4.75
2023-04-25T06:24:33.997Z,4.38
2023-04-25T06:27:03.656Z,4.43
2023-04-25T06:29:30.301Z,4.20
2023-04-25T06:31:58.268Z,3.85
2023-04-25T06:34:25.120Z,3.65
2023-04-25T06:36:51.765Z,3.95
2023-04-25T06:39:21.074Z,3.03
2023-04-25T06:41:49.392Z,3.58
2023-04-25T06:44:36.960Z,2.95
2023-04-25T06:47:07.419Z,2.53
2023-04-25T06:49:34.219Z,2.75
2023-04-25T06:52:01.737Z,2.83
2023-04-25T06:54:30.406Z,3.20
2023-04-25T06:57:04.404Z,3.60
2023-04-25T06:59:33.797Z,3.28
2023-04-25T07:02:01.593Z,3.22
2023-04-25T07:04:28.451Z,3.05
2023-04-25T07:06:57.362Z,2.80
2023-04-25T07:09:34.853Z,2.80
2023-04-25T07:12:02.639Z,2.55
2023-04-25T07:14:30.947Z,2.40
2023-04-25T07:16:58.355Z,2.47
2023-04-25T07:19:27.616Z,2.40
2023-04-25T07:21:57.456Z,2.42
2023-04-25T07:24:24.158Z,2.40
2023-04-25T07:26:52.243Z,2.50
2023-04-25T07:29:29.319Z,2.45
2023-04-25T07:31:59.157Z,2.00
2023-04-25T07:34:25.908Z,2.85
2023-04-25T07:36:53.549Z,2.13
2023-04-25T07:39:21.472Z,3.08
2023-04-25T07:41:48.327Z,2.40
2023-04-25T07:44:20.912Z,2.42
2023-04-25T07:46:47.606Z,2.95
2023-04-25T07:49:15.710Z,3.30
2023-04-25T07:51:44.492Z,2.33
2023-04-25T07:54:15.627Z,1.83
2023-04-25T07:56:52.635Z,1.90
2023-04-25T07:59:42.183Z,2.30
2023-04-25T08:02:08.741Z,2.00
2023-04-25T08:04:36.028Z,1.85
2023-04-25T08:07:05.037Z,1.83
2023-04-25T08:09:39.336Z,2.03
2023-04-25T08:12:10.752Z,2.63
2023-04-25T08:14:38.153Z,2.38
2023-04-25T08:17:06.121Z,2.30
2023-04-25T08:19:39.069Z,2.00
2023-04-25T08:22:06.929Z,2.25
2023-04-25T08:24:43.818Z,1.55
2023-04-25T08:27:12.026Z,2.15
2023-04-25T08:29:38.678Z,2.10
2023-04-25T08:32:05.971Z,2.10
2023-04-25T08:34:34.558Z,1.80
2023-04-25T08:37:05.391Z,2.17
2023-04-25T08:39:40.707Z,1.95
2023-04-25T08:42:22.692Z,1.50
2023-04-25T08:44:51.056Z,2.40
2023-04-25T08:47:22.585Z,1.58
2023-04-25T08:49:54.757Z,1.95
2023-04-25T08:52:28.535Z,2.00
2023-04-25T08:54:56.358Z,2.15
2023-04-25T08:57:24.296Z,2.28
2023-04-25T08:59:53.680Z,1.73
2023-04-25T09:02:21.834Z,2.20
2023-04-25T09:04:50.772Z,1.63
2023-04-25T09:07:19.809Z,1.75
2023-04-25T09:09:46.601Z,1.80
2023-04-25T09:12:20.066Z,2.10
2023-04-25T09:15:10.364Z,1.77
2023-04-25T09:18:04.466Z,2.50
2023-04-25T09:20:59.562Z,1.40
2023-04-25T09:34:21.710Z,1.42
2023-04-25T09:38:06.822Z,1.30
2023-04-25T09:44:34.608Z,1.60
2023-04-25T09:55:28.796Z,1.33
2023-04-25T09:59:11.143Z,1.20
2023-04-25T10:06:40.500Z,1.67
2023-04-25T11:27:58.794Z,1.45
2023-04-25T11:30:27.185Z,1.55
2023-04-25T11:32:54.538Z,1.95
2023-04-25T11:35:24.013Z,1.70
2023-04-25T11:37:51.182Z,1.60
2023-04-25T11:40:18.925Z,1.00
2023-04-25T11:42:47.827Z,1.30
2023-04-25T11:45:15.604Z,1.40
2023-04-25T11:47:42.401Z,1.60
2023-04-25T11:50:09.748Z,1.88
2023-04-25T11:52:44.682Z,1.65
2023-04-25T11:55:19.451Z,1.52
2023-04-25T11:57:49.668Z,1.40
2023-04-25T12:00:19.434Z,1.00
2023-04-25T12:02:53.522Z,1.17
2023-04-25T12:05:32.113Z,1.50
2023-04-25T12:08:16.290Z,1.20
2023-04-25T12:10:44.719Z,1.25
2023-04-25T12:13:22.191Z,1.02
2023-04-25T12:15:48.982Z,1.30
2023-04-25T12:18:15.653Z,0.90
2023-04-25T12:20:42.683Z,1.70
2023-04-25T12:23:09.450Z,1.20
2023-04-25T12:25:44.392Z,1.40
2023-04-25T12:28:21.141Z,1.60
2023-04-25T12:30:58.864Z,1.52
2023-04-25T12:33:27.053Z,5.80
2023-04-25T12:35:55.045Z,2.88
2023-04-25T12:38:26.574Z,1.30
2023-04-25T12:40:54.301Z,1.35
2023-04-25T12:43:22.272Z,1.38
2023-04-25T12:45:56.146Z,2.05
2023-04-25T12:48:23.353Z,1.52
2023-04-25T12:50:51.551Z,1.38
2023-04-25T12:53:19.814Z,1.48
2023-04-25T12:55:49.397Z,1.60
2023-04-25T12:58:20.901Z,1.77
2023-04-25T13:00:47.713Z,1.40
2023-04-25T13:03:14.514Z,1.38
2023-04-25T13:05:42.029Z,1.15
2023-04-25T13:08:08.956Z,2.53
2023-04-25T13:10:36.936Z,3.47
2023-04-25T13:13:03.615Z,4.05
2023-04-25T13:15:30.354Z,2.85
2023-04-25T13:17:57.069Z,7.03
2023-04-25T13:20:23.998Z,1.75
2023-04-25T13:22:50.787Z,1.20
2023-04-25T13:25:17.496Z,1.33
2023-04-25T13:27:45.241Z,1.40
2023-04-25T13:30:12.417Z,0.82
2023-04-25T13:32:39.490Z,0.93
2023-04-25T13:35:10.508Z,1.10
2023-04-25T13:37:37.787Z,1.40
2023-04-25T13:40:10.744Z,1.30
2023-04-25T13:42:38.338Z,0.98
2023-04-25T13:45:05.409Z,1.13
2023-04-25T13:47:32.015Z,1.13
2023-04-25T13:49:58.589Z,1.13
2023-04-25T13:52:25.398Z,1.30
2023-04-25T13:54:52.168Z,1.30
2023-04-25T13:57:19.350Z,1.05
2023-04-25T13:59:46.978Z,1.13
2023-04-25T14:02:13.773Z,1.13
2023-04-25T14:04:40.388Z,1.08
2023-04-25T14:07:07.048Z,1.02
2023-04-25T14:09:33.684Z,1.15
2023-04-25T14:12:00.459Z,3.47
2023-04-25T14:14:27.072Z,1.73
2023-04-25T14:16:55.087Z,4.35
2023-04-25T14:19:22.547Z,1.23
2023-04-25T14:21:49.146Z,3.58
2023-04-25T14:24:16.788Z,3.13
2023-04-25T14:26:44.098Z,2.53
2023-04-25T14:29:12.783Z,1.77
2023-04-25T14:31:41.301Z,1.15
2023-04-25T14:34:09.109Z,0.82
2023-04-25T14:36:37.302Z,1.35
2023-04-25T14:39:06.128Z,1.33
2023-04-25T14:41:33.234Z,1.08
2023-04-25T14:43:59.813Z,1.15
2023-04-25T14:46:27.041Z,1.42
2023-04-25T14:48:54.241Z,1.00
2023-04-25T14:51:21.128Z,1.10
2023-04-25T14:53:47.850Z,1.08
2023-04-25T14:56:14.528Z,1.10
2023-04-25T14:58:41.600Z,1.10
2023-04-25T15:01:09.231Z,0.80
2023-04-25T15:03:36.299Z,1.08
2023-04-25T15:06:03.055Z,1.40
2023-04-25T15:08:29.562Z,1.60
2023-04-25T15:10:56.136Z,1.48
2023-04-25T15:13:22.953Z,1.35
2023-04-25T15:15:52.190Z,1.33
2023-04-25T15:18:24.517Z,1.25
2023-04-25T15:20:54.378Z,1.65
2023-04-25T15:23:22.351Z,1.30
2023-04-25T15:25:51.449Z,1.02
2023-04-25T15:28:18.016Z,1.20
2023-04-25T15:30:45.668Z,1.85
2023-04-25T15:33:12.246Z,1.25
2023-04-25T15:35:38.778Z,1.55
2023-04-25T15:38:05.592Z,1.67
2023-04-25T15:40:32.241Z,1.38
2023-04-25T15:42:59.551Z,1.10
2023-04-25T15:45:26.856Z,1.60
2023-04-25T15:47:55.709Z,2.05
2023-04-25T15:50:23.367Z,2.63
2023-04-25T15:52:50.930Z,2.08
2023-04-25T15:55:19.548Z,2.83
2023-04-25T15:57:46.360Z,2.47
2023-04-25T16:00:15.088Z,1.48
2023-04-25T16:02:43.198Z,2.83
2023-04-25T16:05:11.477Z,2.45
2023-04-25T16:07:39.549Z,1.60
2023-04-25T16:10:06.542Z,1.60
2023-04-25T16:12:33.182Z,1.67
2023-04-25T16:14:59.866Z,1.30
2023-04-25T16:17:29.435Z,1.40
2023-04-25T16:19:56.879Z,1.52
2023-04-25T16:22:23.595Z,1.60
2023-04-25T16:24:50.576Z,1.60
2023-04-25T16:27:17.296Z,1.55
2023-04-25T16:29:43.866Z,1.95
2023-04-25T16:32:10.969Z,2.35
2023-04-25T16:34:37.507Z,2.17
2023-04-25T16:37:04.519Z,1.90
2023-04-25T16:39:31.110Z,1.55
2023-04-25T16:41:57.615Z,1.60
2023-04-25T16:44:24.161Z,1.20
2023-04-25T16:46:50.773Z,2.58
2023-04-25T16:49:17.364Z,2.13
2023-04-25T16:51:44.032Z,2.60
2023-04-25T16:54:10.635Z,4.25
2023-04-25T16:56:37.290Z,4.55
2023-04-25T16:59:03.855Z,6.00
2023-04-25T17:01:31.187Z,4.43
2023-04-25T17:03:57.973Z,2.65
2023-04-25T17:06:24.848Z,3.47
2023-04-25T17:08:51.805Z,3.40
2023-04-25T17:11:20.068Z,2.80
2023-04-25T17:13:46.739Z,2.70
2023-04-25T17:16:16.477Z,4.65
2023-04-25T17:18:43.837Z,3.35
2023-04-25T17:21:10.590Z,1.88
2023-04-25T17:23:37.190Z,1.70
2023-04-25T17:26:03.785Z,2.40
2023-04-25T17:28:30.404Z,1.80
2023-04-25T17:30:57.412Z,2.70
2023-04-25T17:33:26.946Z,2.55
2023-04-25T17:35:54.308Z,1.98
2023-04-25T17:38:20.945Z,2.28
2023-04-25T17:40:47.829Z,2.40
2023-04-25T17:43:14.377Z,1.98
2023-04-25T17:45:40.994Z,3.40
2023-04-25T17:48:07.617Z,1.90
2023-04-25T17:50:34.251Z,2.25
2023-04-25T17:53:05.149Z,2.50
2023-04-25T17:55:31.786Z,2.75
2023-04-25T17:57:58.324Z,2.15
2023-04-25T18:00:24.915Z,1.98
2023-04-25T18:02:52.136Z,1.50
2023-04-25T18:05:19.105Z,2.28
2023-04-25T18:07:45.999Z,2.45
2023-04-25T18:10:12.606Z,2.60
2023-04-25T18:12:39.148Z,2.40
2023-04-25T18:15:06.885Z,2.17
2023-04-25T18:17:39.931Z,2.35
2023-04-25T18:20:15.083Z,2.20
2023-04-25T18:22:43.298Z,2.17
2023-04-25T18:25:11.145Z,2.85
2023-04-25T18:27:38.787Z,2.67
2023-04-25T18:30:08.753Z,3.00
2023-04-25T18:32:35.478Z,2.22
2023-04-25T18:35:02.274Z,1.88
2023-04-25T18:37:28.920Z,2.05
2023-04-25T18:39:55.734Z,2.35
2023-04-25T18:42:22.430Z,2.22
2023-04-25T18:44:49.021Z,2.28
2023-04-25T18:47:15.599Z,2.20
2023-04-25T18:49:42.496Z,2.22
2023-04-25T18:52:10.701Z,1.67
2023-04-25T18:54:37.878Z,2.30
2023-04-25T18:57:05.982Z,2.03
2023-04-25T18:59:33.423Z,2.22
2023-04-25T19:02:04.417Z,1.90
2023-04-25T19:04:32.267Z,2.25
2023-04-25T19:06:59.625Z,2.45
2023-04-25T19:09:26.355Z,1.90
2023-04-25T19:11:53.088Z,2.13
2023-04-25T19:14:19.604Z,1.83
2023-04-25T19:16:46.369Z,1.75
2023-04-25T19:19:12.969Z,1.83
2023-04-25T19:21:39.729Z,2.40
2023-04-25T19:24:07.075Z,2.10
2023-04-25T19:26:34.098Z,3.92
2023-04-25T19:29:09.264Z,3.17
2023-04-25T19:31:37.677Z,3.63
2023-04-25T19:34:05.851Z,3.78
2023-04-25T19:36:33.100Z,3.40
2023-04-25T19:39:03.762Z,3.35
2023-04-25T19:41:32.084Z,3.47
2023-04-25T19:44:04.691Z,3.05
2023-04-25T19:46:34.208Z,3.75
2023-04-25T19:49:01.478Z,4.50
2023-04-25T19:51:28.623Z,7.05
2023-04-25T19:53:55.612Z,14.52
2023-04-25T19:56:23.514Z,15.90
2023-04-25T19:58:51.053Z,17.10
2023-04-25T20:01:18.129Z,14.05
2023-04-25T20:03:45.299Z,11.45
2023-04-25T20:06:11.922Z,7.80
2023-04-25T20:08:38.468Z,5.25
2023-04-25T20:11:05.356Z,5.28
2023-04-25T20:13:32.721Z,3.92
2023-04-25T20:16:01.329Z,3.35
2023-04-25T20:18:29.633Z,2.85
2023-04-25T20:20:56.554Z,3.08
2023-04-25T20:23:23.119Z,2.97
2023-04-25T20:25:50.440Z,2.72
2023-04-25T20:28:17.410Z,3.17
2023-04-25T20:30:44.562Z,3.10
2023-04-25T20:33:11.173Z,3.03
2023-04-25T20:35:37.789Z,5.68
2023-04-25T20:38:04.332Z,6.68
2023-04-25T20:40:31.110Z,4.75
2023-04-25T20:42:57.742Z,5.30
2023-04-25T20:45:26.111Z,4.50
2023-04-25T20:47:53.210Z,4.40
2023-04-25T20:50:20.088Z,5.75
2023-04-25T20:52:46.591Z,5.82
2023-04-25T20:55:13.439Z,5.82
2023-04-25T20:57:40.009Z,5.20
2023-04-25T21:00:18.357Z,4.60
2023-04-25T21:02:46.614Z,4.60
2023-04-25T21:05:13.629Z,3.53
2023-04-25T21:07:40.222Z,3.65
2023-04-25T21:10:07.188Z,2.92
2023-04-25T21:12:33.830Z,3.30
2023-04-25T21:15:00.686Z,3.08
2023-04-25T21:17:27.594Z,3.05
2023-04-25T21:19:54.295Z,2.90
2023-04-25T21:22:21.519Z,3.42
2023-04-25T21:24:50.665Z,2.60
2023-04-25T21:27:20.523Z,2.53
2023-04-25T21:29:47.211Z,2.85
2023-04-25T21:32:17.484Z,2.50
2023-04-25T21:34:44.249Z,2.45
2023-04-25T21:37:11.041Z,2.65
2023-04-25T21:39:37.773Z,2.63
2023-04-25T21:42:08.817Z,2.72
2023-04-25T21:44:35.943Z,2.90
2023-04-25T21:47:04.446Z,3.03
2023-04-25T21:49:32.815Z,2.30
2023-04-25T21:51:59.923Z,2.53
2023-04-25T21:54:27.072Z,2.78
2023-04-25T21:56:53.857Z,2.72
2023-04-25T21:59:23.194Z,2.88
2023-04-25T22:01:49.984Z,4.00
2023-04-25T22:04:17.138Z,3.08
2023-04-25T22:06:43.961Z,3.20
2023-04-25T22:09:10.564Z,3.20
2023-04-25T22:11:37.127Z,3.55
2023-04-25T22:14:03.726Z,4.25
2023-04-25T22:16:30.384Z,4.20
2023-04-25T22:18:56.962Z,4.75
2023-04-25T22:21:24.376Z,4.25
2023-04-25T22:23:52.686Z,3.67
2023-04-25T22:26:20.398Z,4.00
2023-04-25T22:28:47.200Z,3.40
2023-04-25T22:31:14.329Z,3.00
2023-04-25T22:33:41.367Z,3.58
2023-04-25T22:36:08.909Z,3.83
2023-04-25T22:38:35.825Z,3.97
2023-04-25T22:41:02.340Z,4.85
2023-04-25T22:43:29.376Z,4.18
2023-04-25T22:45:56.824Z,3.33
2023-04-25T22:48:23.404Z,3.53
2023-04-25T22:50:51.056Z,3.97
2023-04-25T22:53:17.641Z,3.55
2023-04-25T22:55:44.342Z,3.38
2023-04-25T22:58:10.948Z,3.92
2023-04-25T23:00:37.632Z,3.80
2023-04-25T23:03:04.923Z,3.35
2023-04-25T23:05:32.827Z,3.60
2023-04-25T23:07:59.944Z,3.40
2023-04-25T23:10:28.042Z,3.70
2023-04-25T23:12:57.332Z,4.43
2023-04-25T23:15:26.392Z,3.70
2023-04-25T23:17:53.393Z,3.83
2023-04-25T23:20:21.033Z,3.65
2023-04-25T23:22:47.880Z,4.60
2023-04-25T23:25:14.907Z,4.43
2023-04-25T23:27:42.362Z,4.30
2023-04-25T23:30:10.401Z,4.40
2023-04-25T23:32:37.903Z,3.95
2023-04-25T23:35:05.457Z,4.22
2023-04-25T23:37:38.612Z,3.45
2023-04-25T23:40:12.749Z,3.75
2023-04-25T23:42:41.106Z,4.10
2023-04-25T23:45:08.883Z,3.85
2023-04-25T23:47:36.130Z,3.80
2023-04-25T23:50:03.604Z,4.20
2023-04-25T23:52:30.297Z,4.65
2023-04-25T23:54:56.889Z,3.97
2023-04-25T23:57:23.459Z,4.38
2023-04-25T23:59:50.154Z,4.20
